Strona główna
METAR-TAF:

METAR-TAF

Lotnisko :

Port lotniczy Asahikawa

Asahikawa, Japonia

Szerokość geograficzna: 43-40N, Długość geograficzna: 142-27E, wysokość: 208 m

Aktualna obserwacja pogody

Raport powstał 39 minut temu, godzina 01:00 UTC
Wiatr 4 kt od południe, zmienny między wschód i zachodnio-południowy zachód
Temperatura 16°C
Wilgotność 68%
Ciśnienie 1020 hPa
Widzialność 10 km lub więcej
Mało chmury na wysokości 3500 ft

METAR: RJEC 260100Z 18004KT 100V250 9999 FEW035 16/10 Q1020

czas: 10:39 (01:39 UTC)

Prognoza

Raport powstał 2 godziny i 30 minut temu, godzina 23:09 UTC
Prognoza ważna od 26 godzina 00 UTC do 27 godzina 06 UTC
Wiatr 5 kt od południe
Widzialność 10 km lub więcej
Mało chmury na wysokości 1500 ft
Przerywane chmury na wysokości 3000 ft
Stopniowe zmiany
od 26 godzina 00 UTC do 26 godzina 02 UTC
Wiatr 8 kt od północno-północny zachód

TAF: RJEC 252309Z 2600/2706 18005KT 9999 FEW015 BKN030 BECMG 2600/2602 34008KT

Obserwacja i prognoza pogody dla ponad 4000 lotnisk (raport METAR i TAF).

Dostępne stacje oznaczono żółtymi i czerwonymi punktami na mapie.

Najedź kursorem aby zobaczyć nazwę stacji.

Kliknij aby zobaczyć obserwacje i prognozy pogody.

Aby zmienić mapę: kliknij na zielony przycisk z czarnym krzyżykiem, aby powiększyć; na zielony przycisk z myślnikiem, aby pomniejszyć; na zielone strzałki, aby przejść do map sąsiednich.


METAR-TAF: